Time;durP1;ratioP1;P1;durP2;ratioP2;P2;SDS_P1;SDS_P2;PMS_P1;PMS_P2;Temp;Humidity;BMP_temperature;BMP_pressure;BME280_temperature;BME280_humidity;BME280_pressure;Samples;Min_cycle;Max_cycle;Signal;HPM_P1;HPM_P2
2022/04/04 00:02:03;;;;;;;9.67;5.07;;;;;;;-145.18;100.00;46631.09;4951741;28;20031;-68
2022/04/04 00:04:29;;;;;;;9.07;5.00;;;;;;;-145.18;100.00;46629.13;4951503;29;20532;-68
2022/04/04 00:06:54;;;;;;;10.53;5.70;;;;;;;-145.18;100.00;46636.94;4951793;29;20039;-68
2022/04/04 00:09:20;;;;;;;8.33;5.00;;;;;;;-145.18;100.00;46633.06;4951929;29;20286;-68
2022/04/04 00:11:45;;;;;;;10.00;5.17;;;;;;;-145.18;100.00;46631.09;4951488;29;20059;-68
2022/04/04 00:14:11;;;;;;;10.37;5.90;;;;;;;-145.18;100.00;46627.19;4951571;29;20031;-68
2022/04/04 00:16:36;;;;;;;9.67;5.57;;;;;;;-145.18;100.00;46633.06;4951687;29;20103;-68
2022/04/04 00:19:02;;;;;;;11.00;6.10;;;;;;;-145.18;100.00;46629.13;4952076;29;20118;-68
2022/04/04 00:21:28;;;;;;;12.55;5.82;;;;;;;-145.18;100.00;46625.22;4951400;29;20397;-68
2022/04/04 00:23:53;;;;;;;12.13;5.30;;;;;;;-145.18;100.00;46625.22;4951732;29;20070;-68
2022/04/04 00:26:19;;;;;;;12.33;6.33;;;;;;;-145.18;100.00;46619.38;4934466;29;20040;-68
2022/04/04 00:28:44;;;;;;;10.17;5.40;;;;;;;-145.18;100.00;46621.31;4951843;29;20038;-68
2022/04/04 00:31:09;;;;;;;7.37;5.07;;;;;;;-145.18;100.00;46619.38;4952227;28;20101;-68
2022/04/04 00:33:35;;;;;;;15.03;6.27;;;;;;;-145.18;100.00;46617.41;4955351;29;20122;-68
2022/04/04 00:36:02;;;;;;;10.27;5.97;;;;;;;-145.18;100.00;46621.31;4955565;29;20031;-68
2022/04/04 00:38:27;;;;;;;10.77;5.18;;;;;;;-145.18;100.00;46623.28;4955269;29;20046;-68
2022/04/04 00:40:53;;;;;;;13.37;5.00;;;;;;;-145.18;100.00;46623.28;4955639;29;20043;-68
2022/04/04 00:43:18;;;;;;;11.17;5.07;;;;;;;-145.18;100.00;46631.09;4954928;29;20492;-68
2022/04/04 00:45:45;;;;;;;9.27;4.93;;;;;;;-145.18;100.00;46625.22;4955755;29;20035;-68
2022/04/04 00:48:11;;;;;;;8.40;5.22;;;;;;;-145.18;100.00;46621.31;4954925;29;20039;-68
2022/04/04 00:50:36;;;;;;;8.50;5.23;;;;;;;-145.18;100.00;46629.13;4955107;29;20111;-68
2022/04/04 00:53:02;;;;;;;10.30;4.13;;;;;;;-145.18;100.00;46627.19;4955056;29;20086;-68
2022/04/04 00:55:27;;;;;;;9.90;5.30;;;;;;;-145.18;100.00;46635.00;4955100;29;20035;-68
2022/04/04 00:57:54;;;;;;;11.17;5.23;;;;;;;-145.18;100.00;46627.19;4954696;29;20098;-68
2022/04/04 01:00:20;;;;;;;11.32;4.93;;;;;;;-145.18;100.00;46629.13;4954935;29;20059;-68
2022/04/04 01:02:46;;;;;;;10.23;5.67;;;;;;;-145.18;100.00;46627.19;4937405;29;20059;-68
2022/04/04 01:05:12;;;;;;;9.63;5.20;;;;;;;-145.18;100.00;46625.22;4954906;29;20060;-68
2022/04/04 01:07:39;;;;;;;10.45;5.57;;;;;;;-145.18;100.00;46631.09;4954778;29;20793;-68
2022/04/04 01:10:06;;;;;;;9.68;5.60;;;;;;;-145.18;100.00;46627.19;4954711;29;20534;-68
2022/04/04 01:12:32;;;;;;;12.05;6.20;;;;;;;-145.18;100.00;46629.13;4954229;29;20035;-68
2022/04/04 01:14:57;;;;;;;9.30;5.17;;;;;;;-145.18;100.00;46633.06;4954730;29;20102;-68
2022/04/04 01:17:25;;;;;;;7.37;4.13;;;;;;;-145.18;100.00;46635.00;4954559;29;20051;-68
2022/04/04 01:19:51;;;;;;;12.85;5.82;;;;;;;-145.18;100.00;46629.13;4954787;29;20031;-68
2022/04/04 01:22:16;;;;;;;13.07;6.00;;;;;;;-145.18;100.00;46633.06;4954166;29;20507;-69
2022/04/04 01:24:42;;;;;;;11.47;5.93;;;;;;;-145.18;100.00;46633.06;4954855;29;20396;-68
2022/04/04 01:27:09;;;;;;;9.17;5.77;;;;;;;-145.18;100.00;46635.00;4954406;29;20043;-68
2022/04/04 01:29:36;;;;;;;11.60;5.93;;;;;;;-145.18;100.00;46635.00;4954543;29;20114;-68
2022/04/04 01:32:02;;;;;;;9.95;6.38;;;;;;;-145.18;100.00;46636.94;4954526;29;20384;-68
2022/04/04 01:34:29;;;;;;;13.57;6.00;;;;;;;-145.18;100.00;46640.88;4954482;29;20492;-68
2022/04/04 01:36:55;;;;;;;11.48;6.22;;;;;;;-145.18;100.00;46636.94;4954153;29;20126;-68
2022/04/04 01:39:21;;;;;;;11.13;6.22;;;;;;;-145.18;100.00;46636.94;4954478;29;20110;-68
2022/04/04 01:41:46;;;;;;;8.53;5.90;;;;;;;-145.18;100.00;46638.91;4954081;29;20066;-68
2022/04/04 01:44:12;;;;;;;10.40;5.97;;;;;;;-145.18;100.00;46640.88;4953608;28;20720;-68
2022/04/04 01:46:37;;;;;;;10.23;5.80;;;;;;;-145.18;100.00;46636.94;4953666;29;20039;-68
2022/04/04 01:49:04;;;;;;;7.27;5.43;;;;;;;-145.18;100.00;46636.94;4954490;29;20497;-68
2022/04/04 01:51:32;;;;;;;11.82;6.15;;;;;;;-145.18;100.00;46640.88;4953718;29;20047;-68
2022/04/04 01:53:58;;;;;;;10.80;5.60;;;;;;;-145.18;100.00;46638.91;4953859;29;20043;-68
2022/04/04 01:56:23;;;;;;;11.63;5.33;;;;;;;-145.18;100.00;46652.59;4953841;29;20042;-68
2022/04/04 01:58:49;;;;;;;9.13;5.90;;;;;;;-145.18;100.00;46654.53;4953982;29;20035;-68
2022/04/04 02:03:52;;;;;;;21.10;5.22;;;;;;;-145.18;100.00;46638.91;4946333;23;20064;-69
2022/04/04 02:06:18;;;;;;;6.47;4.30;;;;;;;-145.18;100.00;46652.59;5012028;28;20190;-69
2022/04/04 02:08:44;;;;;;;7.87;5.27;;;;;;;-145.18;100.00;46638.91;5011611;28;20046;-68
2022/04/04 02:11:11;;;;;;;9.60;5.38;;;;;;;-145.18;100.00;46636.94;5012552;28;20022;-69
2022/04/04 02:13:37;;;;;;;8.00;5.35;;;;;;;-145.18;100.00;46656.50;5011528;28;20575;-69
2022/04/04 02:16:04;;;;;;;9.38;5.53;;;;;;;-145.18;100.00;46650.63;5012069;28;20109;-69
2022/04/04 02:18:31;;;;;;;12.25;5.47;;;;;;;-145.18;100.00;46635.00;5010555;28;20030;-69
2022/04/04 02:20:57;;;;;;;12.90;5.57;;;;;;;-145.18;100.00;46640.88;5011886;28;20033;-69
2022/04/04 02:23:23;;;;;;;9.77;5.65;;;;;;;-145.18;100.00;46640.88;5011530;28;20042;-69
2022/04/04 02:25:50;;;;;;;9.50;5.60;;;;;;;-145.18;100.00;46640.88;5011871;28;20537;-69
2022/04/04 02:28:16;;;;;;;8.50;5.00;;;;;;;-145.18;100.00;46633.06;5011612;28;20080;-69
2022/04/04 02:30:43;;;;;;;8.82;4.57;;;;;;;-145.18;100.00;46636.94;5011601;28;20117;-69
2022/04/04 02:33:09;;;;;;;10.13;5.20;;;;;;;-145.18;100.00;46636.94;5011177;28;20084;-69
2022/04/04 02:35:35;;;;;;;7.78;5.07;;;;;;;-145.18;100.00;46633.06;5011824;28;20034;-69
2022/04/04 02:38:01;;;;;;;8.07;5.33;;;;;;;-145.18;100.00;46635.00;5011144;28;20029;-69
2022/04/04 02:40:27;;;;;;;7.10;4.55;;;;;;;-145.18;100.00;46638.91;5011755;28;20117;-69
2022/04/04 02:42:53;;;;;;;11.70;5.00;;;;;;;-145.18;100.00;46635.00;5011582;28;20113;-69
2022/04/04 02:45:19;;;;;;;7.67;4.03;;;;;;;-145.18;100.00;46633.06;5011767;28;20042;-69
2022/04/04 02:47:45;;;;;;;12.30;5.47;;;;;;;-145.18;100.00;46638.91;5011280;28;20264;-69
2022/04/04 02:50:11;;;;;;;13.23;5.18;;;;;;;-145.18;100.00;46636.94;5011313;28;20033;-69
2022/04/04 02:52:38;;;;;;;8.57;4.47;;;;;;;-145.18;100.00;46636.94;5011014;28;20035;-69
2022/04/04 02:57:49;;;;;;;11.82;4.78;;;;;;;-145.18;100.00;46631.09;5011355;28;20083;-69
2022/04/04 03:00:18;;;;;;;7.50;4.40;;;;;;;-145.18;100.00;46650.63;5011205;28;20414;-69
2022/04/04 03:02:44;;;;;;;13.05;5.15;;;;;;;-145.18;100.00;46633.06;5010714;28;20726;-69
2022/04/04 03:05:09;;;;;;;7.07;4.10;;;;;;;-145.18;100.00;46635.00;5011115;28;20376;-69
2022/04/04 03:07:35;;;;;;;10.13;4.23;;;;;;;-145.18;100.00;46635.00;5010960;28;20026;-69
2022/04/04 03:10:00;;;;;;;12.87;5.37;;;;;;;-145.18;100.00;46635.00;5011084;28;20034;-69
2022/04/04 03:12:26;;;;;;;9.83;4.77;;;;;;;-145.18;100.00;46640.88;5010507;28;20034;-69
2022/04/04 03:14:51;;;;;;;10.50;5.17;;;;;;;-145.18;100.00;46640.88;5011062;28;20111;-69
2022/04/04 03:17:16;;;;;;;8.27;4.97;;;;;;;-145.18;100.00;46636.94;5010674;28;20080;-69
2022/04/04 03:19:42;;;;;;;8.33;5.20;;;;;;;-145.18;100.00;46654.53;5011108;28;20184;-68
2022/04/04 03:22:07;;;;;;;13.87;5.37;;;;;;;-145.18;100.00;46636.94;5010232;28;20740;-69
2022/04/04 03:24:33;;;;;;;8.63;5.80;;;;;;;-145.18;100.00;46638.91;5011189;28;20037;-69
2022/04/04 03:26:58;;;;;;;11.97;5.93;;;;;;;-145.18;100.00;46642.81;4993134;28;20048;-69
2022/04/04 03:29:23;;;;;;;10.77;5.50;;;;;;;-145.18;100.00;46642.81;5011036;28;20585;-69
2022/04/04 03:31:49;;;;;;;10.63;6.30;;;;;;;-145.18;100.00;46640.88;5010622;28;20041;-69
2022/04/04 03:34:14;;;;;;;10.57;4.57;;;;;;;-145.18;100.00;46640.88;5010465;28;20541;-69
2022/04/04 03:36:39;;;;;;;10.07;6.10;;;;;;;-145.18;100.00;46636.94;5011056;28;20049;-69
2022/04/04 03:39:05;;;;;;;12.03;6.60;;;;;;;-145.18;100.00;46635.00;5010316;28;20449;-69
2022/04/04 03:41:30;;;;;;;11.00;5.70;;;;;;;-145.18;100.00;46654.53;5010873;28;20061;-69
2022/04/04 03:43:56;;;;;;;10.30;6.23;;;;;;;-145.18;100.00;46652.59;5010377;28;20114;-69
2022/04/04 03:46:21;;;;;;;7.50;4.30;;;;;;;-145.18;100.00;46652.59;5010625;28;20042;-69
2022/04/04 03:48:46;;;;;;;11.97;6.03;;;;;;;-145.18;100.00;46650.63;5010348;28;20112;-68
2022/04/04 03:51:12;;;;;;;12.57;5.97;;;;;;;-145.18;100.00;46636.94;4994670;28;20049;-69
2022/04/04 03:53:38;;;;;;;10.03;6.87;;;;;;;-145.18;100.00;46650.63;4972401;28;20053;-69
2022/04/04 03:56:04;;;;;;;9.23;5.67;;;;;;;-145.18;100.00;46648.69;4990531;28;20031;-69
2022/04/04 03:58:30;;;;;;;12.52;6.13;;;;;;;-145.18;100.00;46654.53;4990038;28;20070;-69
2022/04/04 04:00:55;;;;;;;13.67;7.37;;;;;;;-145.18;100.00;46652.59;4986689;28;20530;-69
2022/04/04 04:03:21;;;;;;;11.80;6.30;;;;;;;-145.18;100.00;46656.50;4989627;28;20057;-69
2022/04/04 04:05:46;;;;;;;12.63;7.03;;;;;;;-145.18;100.00;46652.59;4990669;28;20035;-69
2022/04/04 04:08:11;;;;;;;11.17;5.70;;;;;;;-145.18;100.00;46652.59;4993745;28;20033;-69
2022/04/04 04:10:37;;;;;;;10.20;6.83;;;;;;;-145.18;100.00;46654.53;4994444;28;20089;-69
2022/04/04 04:13:05;;;;;;;9.87;5.87;;;;;;;-145.18;100.00;46617.41;4976376;28;20465;-68
2022/04/04 04:15:32;;;;;;;12.32;5.60;;;;;;;-145.18;100.00;46640.88;4994520;28;20470;-69
2022/04/04 04:17:57;;;;;;;11.60;7.05;;;;;;;-145.18;100.00;46650.63;4993866;28;20113;-69
2022/04/04 04:20:23;;;;;;;11.83;6.47;;;;;;;-145.18;100.00;46619.38;4994258;28;20630;-69
2022/04/04 04:22:54;;;;;;;12.98;7.50;;;;;;;-145.18;100.00;46615.47;4993169;28;20030;-69
2022/04/04 04:25:21;;;;;;;10.23;6.32;;;;;;;-145.18;100.00;46654.53;4993760;28;20074;-69
2022/04/04 04:27:46;;;;;;;10.93;6.57;;;;;;;-145.18;100.00;46648.69;4993171;28;20493;-69
2022/04/04 04:30:13;;;;;;;20.63;7.57;;;;;;;-145.18;100.00;46640.88;4993899;28;20117;-69
2022/04/04 04:32:41;;;;;;;12.37;5.90;;;;;;;-145.18;100.00;46615.47;4976513;28;20525;-69
2022/04/04 04:35:08;;;;;;;11.23;6.67;;;;;;;-145.18;100.00;46619.38;4994133;28;20272;-69
2022/04/04 04:37:33;;;;;;;13.30;6.65;;;;;;;-145.18;100.00;46623.28;4994048;28;20366;-69
2022/04/04 04:39:58;;;;;;;13.00;7.23;;;;;;;-145.18;100.00;46615.47;4994179;28;20067;-69
2022/04/04 04:42:24;;;;;;;13.93;6.07;;;;;;;-145.18;100.00;46619.38;4993787;28;20034;-69
2022/04/04 04:44:49;;;;;;;12.63;6.47;;;;;;;-145.18;100.00;46615.47;4976475;28;20117;-69
2022/04/04 04:47:17;;;;;;;15.80;6.10;;;;;;;-145.18;100.00;46621.31;4994016;28;20112;-69
2022/04/04 04:49:43;;;;;;;10.50;6.70;;;;;;;-145.18;100.00;46627.19;4994187;28;20038;-68
2022/04/04 04:52:08;;;;;;;11.90;6.83;;;;;;;-145.18;100.00;46609.59;4992783;28;20494;-68
2022/04/04 04:54:34;;;;;;;14.37;7.00;;;;;;;-145.18;100.00;46621.31;4993899;28;20035;-68
2022/04/04 04:56:59;;;;;;;16.50;7.40;;;;;;;-145.18;100.00;46619.38;4993764;28;20041;-69
2022/04/04 04:59:25;;;;;;;13.63;7.43;;;;;;;-145.18;100.00;46611.56;4993698;28;20030;-69
2022/04/04 05:01:51;;;;;;;9.40;5.47;;;;;;;-145.18;100.00;46625.22;4993571;28;20113;-69
2022/04/04 05:04:16;;;;;;;16.93;7.10;;;;;;;-145.18;100.00;46621.31;4993261;28;20375;-69
2022/04/04 05:06:42;;;;;;;14.17;7.23;;;;;;;-145.18;100.00;46609.59;4992464;28;20050;-69
2022/04/04 05:09:07;;;;;;;14.67;7.37;;;;;;;-145.18;100.00;46619.38;4991081;28;20070;-69
2022/04/04 05:11:33;;;;;;;13.30;6.53;;;;;;;-145.18;100.00;46617.41;4975676;28;20041;-69
2022/04/04 05:13:58;;;;;;;14.20;8.73;;;;;;;-145.18;100.00;46621.31;4992735;28;20049;-69
2022/04/04 05:16:28;;;;;;;14.97;7.43;;;;;;;-145.18;100.00;46617.41;4993692;28;20042;-69
2022/04/04 05:18:55;;;;;;;13.95;7.25;;;;;;;-145.18;100.00;46623.28;4991589;28;20061;-69
2022/04/04 05:21:21;;;;;;;14.10;7.70;;;;;;;-145.18;100.00;46615.47;5000727;28;20387;-69
2022/04/04 05:23:47;;;;;;;12.37;7.40;;;;;;;-145.18;100.00;46613.50;4995092;28;20045;-69
2022/04/04 05:26:13;;;;;;;17.45;8.75;;;;;;;-145.18;100.00;46617.41;4995447;28;20431;-69
2022/04/04 05:28:38;;;;;;;11.33;7.03;;;;;;;-145.18;100.00;46609.59;5011420;28;20095;-69
2022/04/04 05:31:05;;;;;;;13.30;7.20;;;;;;;-145.18;100.00;46621.31;4991630;28;20118;-69
2022/04/04 05:33:30;;;;;;;12.43;7.15;;;;;;;-145.18;100.00;46623.28;4992185;28;20534;-69
2022/04/04 05:35:56;;;;;;;15.90;7.90;;;;;;;-145.18;100.00;46617.41;4990365;28;20042;-69
2022/04/04 05:38:21;;;;;;;19.60;8.20;;;;;;;-145.18;100.00;46623.28;4992362;28;20034;-69
2022/04/04 05:40:47;;;;;;;10.57;5.30;;;;;;;-145.18;100.00;46613.50;4993161;28;20065;-69
2022/04/04 05:43:12;;;;;;;14.33;6.87;;;;;;;-145.18;100.00;46621.31;4992232;28;20495;-69
2022/04/04 05:45:39;;;;;;;15.13;8.63;;;;;;;-145.18;100.00;46621.31;4993054;28;20030;-69
2022/04/04 05:48:06;;;;;;;11.10;7.40;;;;;;;-145.18;100.00;46633.06;4992163;28;20100;-69
2022/04/04 05:50:32;;;;;;;13.67;7.47;;;;;;;-145.18;100.00;46638.91;4992622;28;20803;-69
2022/04/04 05:52:58;;;;;;;15.97;7.27;;;;;;;-145.18;100.00;46636.94;4992028;28;20363;-69
2022/04/04 05:55:24;;;;;;;11.97;6.70;;;;;;;-145.18;100.00;46646.72;4992754;28;20264;-69
2022/04/04 05:57:49;;;;;;;11.07;7.93;;;;;;;-145.18;100.00;46656.50;4992017;28;20368;-69
2022/04/04 06:00:15;;;;;;;16.20;6.40;;;;;;;-145.18;100.00;46660.41;4993226;28;20061;-69
2022/04/04 06:02:42;;;;;;;15.13;6.63;;;;;;;-145.18;100.00;46672.13;4991953;28;20078;-69
2022/04/04 06:05:08;;;;;;;13.27;7.73;;;;;;;-145.18;100.00;46676.03;4991296;28;20493;-69
2022/04/04 06:07:38;;;;;;;13.37;7.10;;;;;;;-145.18;100.00;46687.75;4994572;28;20388;-69
2022/04/04 06:10:06;;;;;;;11.87;7.17;;;;;;;-145.18;100.00;46685.78;4993249;28;20291;-69
2022/04/04 06:12:34;;;;;;;12.70;7.43;;;;;;;-145.18;100.00;46683.84;4990939;28;20346;-69
2022/04/04 06:15:00;;;;;;;15.40;6.93;;;;;;;-145.18;100.00;46699.47;4991769;28;20275;-69
2022/04/04 06:17:25;;;;;;;11.57;7.07;;;;;;;-145.18;100.00;46695.56;4986105;28;20615;-69
2022/04/04 06:19:51;;;;;;;11.17;7.13;;;;;;;-145.18;100.00;46715.09;4970254;28;20114;-69
2022/04/04 06:22:16;;;;;;;10.07;6.57;;;;;;;-145.18;100.00;46734.63;4971967;28;20035;-69
2022/04/04 06:24:41;;;;;;;11.83;6.37;;;;;;;-145.18;100.00;46742.44;4972530;28;20463;-69
2022/04/04 06:27:09;;;;;;;10.53;5.73;;;;;;;-145.18;100.00;46754.16;4972718;28;20450;-69
2022/04/04 06:29:34;;;;;;;10.33;7.10;;;;;;;-145.18;100.00;46765.88;4972329;28;20035;-69
2022/04/04 06:31:59;;;;;;;13.70;6.50;;;;;;;-145.18;100.00;46761.97;4972543;28;20327;-69
2022/04/04 06:34:27;;;;;;;13.57;7.83;;;;;;;-145.18;100.00;46765.88;4971878;28;20482;-69
2022/04/04 06:36:53;;;;;;;8.97;6.50;;;;;;;-145.18;100.00;46752.19;4955564;28;20268;-69
2022/04/04 06:39:18;;;;;;;9.03;5.87;;;;;;;-145.18;100.00;46761.97;4955044;28;20669;-69
2022/04/04 06:41:48;;;;;;;10.80;5.87;;;;;;;-145.18;100.00;46750.25;4972738;28;20034;-69
2022/04/04 06:44:13;;;;;;;13.67;7.00;;;;;;;-145.18;100.00;46760.00;4971796;28;20055;-69
2022/04/04 06:46:39;;;;;;;12.33;6.60;;;;;;;-145.18;100.00;46742.44;4972411;28;20277;-69
2022/04/04 06:49:05;;;;;;;11.57;6.80;;;;;;;-145.18;100.00;46709.22;4971879;28;20041;-69
2022/04/04 06:51:32;;;;;;;11.50;6.47;;;;;;;-145.18;100.00;46701.41;4972650;28;20058;-69
2022/04/04 06:53:59;;;;;;;14.00;6.90;;;;;;;-145.18;100.00;46691.66;4971018;28;20371;-69
2022/04/04 06:56:25;;;;;;;12.10;6.30;;;;;;;-145.18;100.00;46683.84;4971949;28;20277;-69
2022/04/04 06:58:52;;;;;;;10.47;6.37;;;;;;;-145.18;100.00;46660.41;4971783;28;20335;-69
2022/04/04 07:01:18;;;;;;;14.17;7.80;;;;;;;-145.18;100.00;46666.25;4971951;28;20073;-70
2022/04/04 07:03:43;;;;;;;11.50;6.93;;;;;;;-145.18;100.00;46640.88;4971492;28;20324;-70
2022/04/04 07:06:09;;;;;;;13.37;7.53;;;;;;;-145.18;100.00;46633.06;4954610;28;20135;-70
2022/04/04 07:08:34;;;;;;;16.10;8.00;;;;;;;-145.18;100.00;46627.19;4971619;28;20102;-69
2022/04/04 07:11:00;;;;;;;11.20;6.57;;;;;;;-145.18;100.00;46623.28;4971915;28;20511;-70
2022/04/04 07:13:26;;;;;;;10.13;7.03;;;;;;;-145.18;100.00;46613.50;4971717;28;20085;-70
2022/04/04 07:15:51;;;;;;;12.40;7.37;;;;;;;-145.18;100.00;46613.50;4971908;28;20268;-70
2022/04/04 07:18:18;;;;;;;11.23;7.33;;;;;;;-145.18;100.00;46621.31;4971706;28;20031;-70
2022/04/04 07:20:43;;;;;;;15.63;6.63;;;;;;;-145.18;100.00;46625.22;4971486;28;20047;-69
2022/04/04 07:23:08;;;;;;;11.00;7.00;;;;;;;-145.18;100.00;46625.22;4971308;28;20283;-70
2022/04/04 07:25:35;;;;;;;14.33;8.53;;;;;;;-145.18;100.00;46635.00;4972021;28;20042;-69
2022/04/04 07:28:01;;;;;;;11.67;7.47;;;;;;;-145.18;100.00;46635.00;4971033;28;20039;-69
2022/04/04 07:30:26;;;;;;;20.67;8.23;;;;;;;-145.18;100.00;46644.78;4971876;28;20338;-69
2022/04/04 07:32:52;;;;;;;14.07;8.00;;;;;;;-145.18;100.00;46640.88;4971232;28;20046;-69
2022/04/04 07:35:19;;;;;;;15.83;7.77;;;;;;;-145.18;100.00;46648.69;4971866;28;20438;-69
2022/04/04 07:37:46;;;;;;;12.27;7.20;;;;;;;-145.18;100.00;46654.53;4971604;28;20117;-69
2022/04/04 07:40:14;;;;;;;13.87;7.47;;;;;;;-145.18;100.00;46668.22;4971314;28;20315;-69
2022/04/04 07:42:42;;;;;;;14.10;7.17;;;;;;;-145.18;100.00;46666.25;4970376;28;20272;-70
2022/04/04 07:45:09;;;;;;;11.57;6.87;;;;;;;-145.18;100.00;46681.88;4990593;28;20272;-69
2022/04/04 07:47:35;;;;;;;15.77;7.93;;;;;;;-145.18;100.00;46677.97;4991067;28;20268;-69
2022/04/04 07:50:00;;;;;;;10.57;6.73;;;;;;;-145.18;100.00;46672.13;4990467;28;20802;-69
2022/04/04 07:52:27;;;;;;;14.60;7.40;;;;;;;-145.18;100.00;46685.78;4990853;28;20049;-69
2022/04/04 07:54:54;;;;;;;12.10;6.33;;;;;;;-145.18;100.00;46693.59;4990475;28;20084;-69
2022/04/04 07:57:20;;;;;;;12.93;6.73;;;;;;;-145.18;100.00;46674.06;4990285;28;20280;-69
2022/04/04 07:59:46;;;;;;;12.10;7.83;;;;;;;-145.18;100.00;46666.25;4990591;28;20276;-69
2022/04/04 08:02:11;;;;;;;11.17;7.97;;;;;;;-145.18;100.00;46658.44;4973167;28;20291;-69
2022/04/04 08:04:38;;;;;;;12.37;6.97;;;;;;;-145.18;100.00;46664.31;4990412;28;20058;-69
2022/04/04 08:07:04;;;;;;;10.23;7.27;;;;;;;-145.18;100.00;46672.13;4973498;28;20121;-69
2022/04/04 08:09:29;;;;;;;17.13;8.13;;;;;;;-145.18;100.00;46662.34;4973300;28;20677;-69
2022/04/04 08:11:56;;;;;;;13.47;7.77;;;;;;;-145.18;100.00;46658.44;4990772;28;20407;-69
2022/04/04 08:14:22;;;;;;;15.90;7.27;;;;;;;-145.18;100.00;46658.44;4989960;28;20035;-69
2022/04/04 08:16:48;;;;;;;16.43;8.60;;;;;;;-145.18;100.00;46638.91;4998817;28;20286;-69
2022/04/04 08:19:13;;;;;;;16.17;8.27;;;;;;;-145.18;100.00;46609.59;4989938;28;20514;-69
2022/04/04 08:21:41;;;;;;;18.37;7.67;;;;;;;-145.18;100.00;46611.56;4990604;28;20045;-70
2022/04/04 08:24:07;;;;;;;11.63;6.87;;;;;;;-145.18;100.00;46613.50;4990133;28;20042;-68
2022/04/04 08:26:34;;;;;;;14.80;7.67;;;;;;;-145.18;100.00;46605.69;4993184;28;20282;-69
2022/04/04 08:28:59;;;;;;;15.07;9.50;;;;;;;-145.18;100.00;46599.84;4990287;28;20046;-69
2022/04/04 08:31:25;;;;;;;14.67;7.47;;;;;;;-145.18;100.00;46593.97;4992673;28;20314;-69
2022/04/04 08:33:50;;;;;;;12.90;8.07;;;;;;;-145.18;100.00;46586.16;4989996;28;20038;-69
2022/04/04 08:36:16;;;;;;;17.73;8.93;;;;;;;-145.18;100.00;46582.25;4990765;28;20054;-69
2022/04/04 08:38:42;;;;;;;18.77;9.17;;;;;;;-145.18;100.00;46582.25;4990173;28;20030;-69
2022/04/04 08:41:09;;;;;;;17.00;10.00;;;;;;;-145.18;100.00;46576.41;4973280;28;20082;-69
2022/04/04 08:43:49;;;;;;;12.07;7.47;;;;;;;-145.18;100.00;46572.50;4990241;28;20027;-69
2022/04/04 08:46:15;;;;;;;18.50;9.93;;;;;;;-145.18;100.00;46566.63;4993141;28;20264;-70
2022/04/04 08:48:40;;;;;;;13.57;8.77;;;;;;;-145.18;100.00;46552.97;4990074;28;20689;-70
2022/04/04 08:51:07;;;;;;;18.30;8.73;;;;;;;-145.18;100.00;46545.16;4990327;28;20110;-70
2022/04/04 08:53:37;;;;;;;14.80;8.37;;;;;;;-145.18;100.00;46551.00;4991899;28;20047;-70
2022/04/04 08:56:04;;;;;;;13.23;9.17;;;;;;;-145.18;100.00;46551.00;4993609;28;20280;-69
2022/04/04 08:58:31;;;;;;;19.97;10.53;;;;;;;-145.18;100.00;46554.91;4993580;28;20268;-69
2022/04/04 09:00:56;;;;;;;18.87;8.97;;;;;;;-145.18;100.00;46551.00;4976299;28;20645;-69
2022/04/04 09:03:29;;;;;;;18.77;10.93;;;;;;;-145.18;100.00;46564.69;4993254;28;20264;-69
2022/04/04 09:05:56;;;;;;;15.83;10.07;;;;;;;-145.18;100.00;46566.63;4993559;28;20096;-69
2022/04/04 09:08:23;;;;;;;20.93;10.10;;;;;;;-145.18;100.00;46570.53;4993219;28;20276;-70
2022/04/04 09:10:55;;;;;;;15.33;9.10;;;;;;;-145.18;100.00;46576.41;4993178;28;20367;-68
2022/04/04 09:13:22;;;;;;;20.13;10.03;;;;;;;-145.18;100.00;46586.16;4992870;28;20287;-69
2022/04/04 09:16:05;;;;;;;18.50;11.03;;;;;;;-145.18;100.00;46593.97;4993919;28;20630;-69
2022/04/04 09:18:36;;;;;;;21.63;10.67;;;;;;;-145.18;100.00;46603.75;4993173;28;20260;-69
2022/04/04 09:21:03;;;;;;;18.90;10.90;;;;;;;-145.18;100.00;46621.31;4992147;28;20268;-69
2022/04/04 09:23:36;;;;;;;19.10;12.47;;;;;;;-145.18;100.00;46629.13;4993110;28;20270;-70
2022/04/04 09:26:02;;;;;;;17.07;11.37;;;;;;;-145.18;100.00;46638.91;4993216;28;20760;-70
2022/04/04 09:28:27;;;;;;;23.80;10.53;;;;;;;-145.18;100.00;46642.81;4992895;28;20271;-70
2022/04/04 09:31:07;;;;;;;20.80;10.90;;;;;;;-145.18;100.00;46644.78;4993618;28;20030;-70
2022/04/04 09:33:38;;;;;;;18.20;12.30;;;;;;;-145.18;100.00;46652.59;4993106;28;20094;-70
2022/04/04 09:36:04;;;;;;;18.90;12.63;;;;;;;-145.18;100.00;46654.53;4993006;28;20272;-70
2022/04/04 09:38:33;;;;;;;19.67;10.57;;;;;;;-145.18;100.00;46662.34;4975440;28;20661;-69
2022/04/04 09:41:06;;;;;;;18.07;10.90;;;;;;;-145.18;100.00;46664.31;4992953;28;20265;-70
2022/04/04 09:43:50;;;;;;;35.57;12.20;;;;;;;-145.18;100.00;46668.22;4993239;28;20268;-70
2022/04/04 09:46:16;;;;;;;25.73;13.10;;;;;;;-145.18;100.00;46662.34;4993322;28;20359;-69
2022/04/04 09:49:01;;;;;;;30.63;12.47;;;;;;;-145.18;100.00;46672.13;4992746;28;20343;-70
2022/04/04 09:51:35;;;;;;;18.93;11.43;;;;;;;-145.18;100.00;46672.13;4992700;28;20052;-71
2022/04/04 09:54:03;;;;;;;20.30;11.53;;;;;;;-145.18;100.00;46666.25;4992560;28;20287;-70
2022/04/04 09:56:29;;;;;;;19.00;12.80;;;;;;;-145.18;100.00;46672.13;4992765;28;20264;-70
2022/04/04 09:58:58;;;;;;;21.17;12.70;;;;;;;-145.18;100.00;46666.25;4992511;28;20439;-70
2022/04/04 10:01:24;;;;;;;15.03;9.77;;;;;;;-145.18;100.00;46674.06;4993119;28;20264;-71
2022/04/04 10:03:51;;;;;;;15.53;10.40;;;;;;;-145.18;100.00;46674.06;4974685;28;20300;-70
2022/04/04 10:06:18;;;;;;;17.53;9.57;;;;;;;-145.18;100.00;46674.06;4992415;28;20062;-70
2022/04/04 10:08:51;;;;;;;19.60;10.97;;;;;;;-145.18;100.00;46670.16;4992312;28;20347;-70
2022/04/04 10:11:17;;;;;;;22.43;11.47;;;;;;;-145.18;100.00;46677.97;4992827;28;20253;-70
2022/04/04 10:13:44;;;;;;;18.97;10.43;;;;;;;-145.18;100.00;46670.16;4992073;28;20318;-71
2022/04/04 10:16:10;;;;;;;22.80;12.83;;;;;;;-145.18;100.00;46674.06;4992524;28;20272;-71
2022/04/04 10:18:37;;;;;;;16.90;10.50;;;;;;;-145.18;100.00;46674.06;4992393;28;20272;-70
2022/04/04 10:21:03;;;;;;;20.57;10.93;;;;;;;-145.18;100.00;46674.06;4992305;28;20280;-70
2022/04/04 10:23:30;;;;;;;13.93;8.90;;;;;;;-145.18;100.00;46668.22;4992193;28;20363;-70
2022/04/04 10:26:00;;;;;;;19.27;9.57;;;;;;;-145.18;100.00;46674.06;4992344;28;20026;-70
2022/04/04 10:28:27;;;;;;;12.40;9.00;;;;;;;-145.18;100.00;46672.13;4991897;28;20284;-71
2022/04/04 10:30:59;;;;;;;15.17;10.83;;;;;;;-145.18;100.00;46676.03;4992255;28;20331;-71
2022/04/04 10:33:25;;;;;;;22.10;9.37;;;;;;;-145.18;100.00;46674.06;4992105;28;20784;-70
2022/04/04 10:36:08;;;;;;;15.97;10.60;;;;;;;-145.18;100.00;46672.13;4990934;28;20330;-70
2022/04/04 10:38:44;;;;;;;17.87;9.13;;;;;;;-145.18;100.00;46674.06;4994576;28;20279;-70
2022/04/04 10:41:10;;;;;;;;;;;;;;;-145.18;100.00;46672.13;4985973;28;20278;-70
2022/04/04 10:43:42;;;;;;;17.45;9.52;;;;;;;-145.18;100.00;46676.03;4993657;28;19913;-70
2022/04/04 10:46:17;;;;;;;16.07;10.10;;;;;;;-145.18;100.00;46662.34;5011563;28;20038;-70
2022/04/04 10:48:48;;;;;;;12.13;8.63;;;;;;;-145.18;100.00;46674.06;5010873;28;20795;-70
2022/04/04 10:51:18;;;;;;;13.53;9.37;;;;;;;-145.18;100.00;46672.13;5009798;28;20295;-71
2022/04/04 10:53:51;;;;;;;17.50;9.90;;;;;;;-145.18;100.00;46670.16;5011208;28;20644;-69
2022/04/04 10:56:21;;;;;;;13.33;7.60;;;;;;;-145.18;100.00;46668.22;4997167;28;20759;-69
2022/04/04 10:58:47;;;;;;;15.57;8.70;;;;;;;-145.18;100.00;46672.13;4991647;28;20276;-69
2022/04/04 11:01:17;;;;;;;14.40;8.90;;;;;;;-145.18;100.00;46668.22;4991924;28;20358;-69
2022/04/04 11:03:57;;;;;;;11.90;8.03;;;;;;;-145.18;100.00;46670.16;4993209;28;20268;-70
2022/04/04 11:09:31;;;;;;;8.37;5.73;;;;;;;-145.18;100.00;46674.06;4991617;28;20748;-70